^^
Marion, Virginia Banner
 

Adwolf, VA. Station Historical Data
[ Providing Data Since 6/07/2007 ]
Station Historical Data
 
Daily Summary for March 25, 2017 Units:  Both    English   Metric
« Previous Day
Next Day »
Daily Weekly Monthly Yearly Custom
  Current: High: Low: Average:
Temperature: 70.1 °F /  21.2 °C 70.3 °F /  21.3 °C 47.8 °F /  8.8 °C 53.7 °F /  12.1 °C
Dew Point: 50.0 °F /  10 °C 51.8 °F /  11 °C 44.9 °F /  7.2 °C 47.2 °F /  8.4 °C
Humidity: 49% 91% 49% 80%
Wind Speed: 3.5mph /  5.6km/h 8.1mph /  13km/h - 2.5mph /  4km/h
Wind Gust: 3.5mph /  5.6km/h 8.1mph /  13km/h - -
WindWSW - - ESE
Pressure: 30.10 in /  1019.2 hPa 30.21 in /  1022.9 hPa 30.10 in /  1019.2 hPa -
Precipitation: 0.00 in /  0 mm      
Historical Graphs
 
 
Tabular Data for March 25, 2017
Time Temperature Dew Point Pressure Wind Wind Speed Wind Gust Humidity Rainfall Rate (Hourly) solar Conditions
00:04 52.7 °F /  11.5 °C 47.0 °F /  8.3 °C 30.21in /  1022.9hPa ESE 2.3mph /  3.7km/h 2.3mph /  3.7km/h 81% 0.00in /  0mm WeatherDisplay:10.37 W/m2 CLR
00:09 52.5 °F /  11.4 °C 47.1 °F /  8.4 °C 30.21in /  1022.9hPa ESE 1.2mph /  1.9km/h 1.2mph /  1.9km/h 82% 0.00in /  0mm WeatherDisplay:10.37 W/m2 CLR
00:14 52.4 °F /  11.3 °C 47.0 °F /  8.3 °C 30.21in /  1022.9hPa ESE 2.0mph /  3.2km/h 2.0mph /  3.2km/h 82% 0.00in /  0mm WeatherDisplay:10.37 W/m2 CLR
00:19 52.2 °F /  11.2 °C 46.8 °F /  8.2 °C 30.21in /  1022.9hPa Calm     82% 0.00in /  0mm WeatherDisplay:10.37 W/m2 CLR
00:24 52.0 °F /  11.1 °C 46.6 °F /  8.1 °C 30.20in /  1022.6hPa ESE 1.2mph /  1.9km/h 1.2mph /  1.9km/h 82% 0.00in /  0mm WeatherDisplay:10.37 W/m2 CLR
00:29 51.8 °F /  11 °C 46.8 °F /  8.2 °C 30.20in /  1022.6hPa Calm     83% 0.00in /  0mm WeatherDisplay:10.37 W/m2 CLR
00:34 51.7 °F /  10.9 °C 46.7 °F /  8.2 °C 30.20in /  1022.6hPa Calm     83% 0.00in /  0mm WeatherDisplay:10.37 W/m2 CLR
00:39 51.6 °F /  10.9 °C 46.6 °F /  8.1 °C 30.20in /  1022.6hPa Calm     83% 0.00in /  0mm WeatherDisplay:10.37 W/m2 CLR
00:44 51.4 °F /  10.8 °C 46.7 °F /  8.2 °C 30.20in /  1022.6hPa ESE 1.2mph /  1.9km/h 1.2mph /  1.9km/h 84% 0.00in /  0mm WeatherDisplay:10.37 W/m2 SCT
00:49 51.4 °F /  10.8 °C 46.7 °F /  8.2 °C 30.20in /  1022.6hPa ESE 1.2mph /  1.9km/h 1.2mph /  1.9km/h 84% 0.00in /  0mm WeatherDisplay:10.37 W/m2 SCT
00:54 51.2 °F /  10.7 °C 46.5 °F /  8.1 °C 30.20in /  1022.6hPa ESE 1.2mph /  1.9km/h 1.2mph /  1.9km/h 84% 0.00in /  0mm WeatherDisplay:10.37 W/m2 SCT
00:59 51.2 °F /  10.7 °C 46.5 °F /  8.1 °C 30.20in /  1022.6hPa ESE 1.2mph /  1.9km/h 1.2mph /  1.9km/h 84% 0.00in /  0mm WeatherDisplay:10.37 W/m2 SCT
01:04 51.1 °F /  10.6 °C 46.7 °F /  8.2 °C 30.20in /  1022.6hPa ESE 3.5mph /  5.6km/h 3.5mph /  5.6km/h 85% 0.00in /  0mm WeatherDisplay:10.37 W/m2 CLR
01:09 51.1 °F /  10.6 °C 46.7 °F /  8.2 °C 30.19in /  1022.2hPa ESE 1.2mph /  1.9km/h 1.2mph /  1.9km/h 85% 0.00in /  0mm WeatherDisplay:10.37 W/m2 CLR
01:14 51.0 °F /  10.6 °C 46.6 °F /  8.1 °C 30.19in /  1022.2hPa ESE 2.3mph /  3.7km/h 2.3mph /  3.7km/h 85% 0.00in /  0mm WeatherDisplay:10.37 W/m2 CLR
01:19 51.0 °F /  10.6 °C 46.6 °F /  8.1 °C 30.19in /  1022.2hPa ESE 3.5mph /  5.6km/h 3.5mph /  5.6km/h 85% 0.00in /  0mm WeatherDisplay:10.37 W/m2 CLR
01:24 51.1 °F /  10.6 °C 46.7 °F /  8.2 °C 30.19in /  1022.2hPa ESE 3.0mph /  4.8km/h 3.0mph /  4.8km/h 85% 0.00in /  0mm WeatherDisplay:10.37 W/m2 CLR
01:29 51.2 °F /  10.7 °C 46.8 °F /  8.2 °C 30.18in /  1021.9hPa ESE 3.5mph /  5.6km/h 3.5mph /  5.6km/h 85% 0.00in /  0mm WeatherDisplay:10.37 W/m2 CLR
01:34 51.2 °F /  10.7 °C 46.8 °F /  8.2 °C 30.18in /  1021.9hPa Calm     85% 0.00in /  0mm WeatherDisplay:10.37 W/m2 CLR
01:39 51.2 °F /  10.7 °C 46.8 °F /  8.2 °C 30.18in /  1021.9hPa ESE 1.2mph /  1.9km/h 1.2mph /  1.9km/h 85% 0.00in /  0mm WeatherDisplay:10.37 W/m2 CLR
01:44 51.1 °F /  10.6 °C 46.7 °F /  8.2 °C 30.17in /  1021.6hPa East 3.5mph /  5.6km/h 3.5mph /  5.6km/h 85% 0.00in /  0mm WeatherDisplay:10.37 W/m2 CLR
01:49 51.0 °F /  10.6 °C 46.6 °F /  8.1 °C 30.17in /  1021.6hPa East 3.5mph /  5.6km/h 3.5mph /  5.6km/h 85% 0.00in /  0mm WeatherDisplay:10.37 W/m2 CLR
01:54 51.1 °F /  10.6 °C 46.7 °F /  8.2 °C 30.17in /  1021.6hPa East 1.2mph /  1.9km/h 1.2mph /  1.9km/h 85% 0.00in /  0mm WeatherDisplay:10.37 W/m2 CLR
01:59 51.2 °F /  10.7 °C 46.8 °F /  8.2 °C 30.17in /  1021.6hPa East 2.3mph /  3.7km/h 2.3mph /  3.7km/h 85% 0.00in /  0mm WeatherDisplay:10.37 W/m2 CLR
02:04 51.1 °F /  10.6 °C 46.7 °F /  8.2 °C 30.17in /  1021.6hPa East 1.2mph /  1.9km/h 1.2mph /  1.9km/h 85% 0.00in /  0mm WeatherDisplay:10.37 W/m2 CLR
02:09 51.0 °F /  10.6 °C 46.6 °F /  8.1 °C 30.16in /  1021.2hPa East 2.3mph /  3.7km/h 2.3mph /  3.7km/h 85% 0.00in /  0mm WeatherDisplay:10.37 W/m2 CLR
02:14 50.8 °F /  10.4 °C 46.4 °F /  8 °C 30.16in /  1021.2hPa East 2.3mph /  3.7km/h 2.3mph /  3.7km/h 85% 0.00in /  0mm WeatherDisplay:10.37 W/m2 CLR
02:19 50.7 °F /  10.4 °C 46.3 °F /  7.9 °C 30.16in /  1021.2hPa Calm     85% 0.00in /  0mm WeatherDisplay:10.37 W/m2 CLR
02:24 50.5 °F /  10.3 °C 46.1 °F /  7.8 °C 30.16in /  1021.2hPa Calm     85% 0.00in /  0mm WeatherDisplay:10.37 W/m2 CLR
02:29 50.3 °F /  10.2 °C 45.9 °F /  7.7 °C 30.16in /  1021.2hPa East 1.2mph /  1.9km/h   85% 0.00in /  0mm WeatherDisplay:10.37 W/m2 CLR
02:34 50.2 °F /  10.1 °C 46.1 °F /  7.8 °C 30.16in /  1021.2hPa East 1.2mph /  1.9km/h 1.2mph /  1.9km/h 86% 0.00in /  0mm WeatherDisplay:10.37 W/m2 CLR
02:39 50.1 °F /  10.1 °C 46.0 °F /  7.8 °C 30.16in /  1021.2hPa East 1.2mph /  1.9km/h 1.2mph /  1.9km/h 86% 0.00in /  0mm WeatherDisplay:10.37 W/m2 CLR
02:44 50.0 °F /  10 °C 46.2 °F /  7.9 °C 30.16in /  1021.2hPa Calm     87% 0.00in /  0mm WeatherDisplay:10.37 W/m2 CLR
02:49 50.0 °F /  10 °C 46.2 °F /  7.9 °C 30.16in /  1021.2hPa Calm     87% 0.00in /  0mm WeatherDisplay:10.37 W/m2 CLR
02:54 49.9 °F /  9.9 °C 46.1 °F /  7.8 °C 30.17in /  1021.6hPa Calm     87% 0.00in /  0mm WeatherDisplay:10.37 W/m2 CLR
02:59 49.8 °F /  9.9 °C 46.0 °F /  7.8 °C 30.17in /  1021.6hPa East 1.2mph /  1.9km/h 1.2mph /  1.9km/h 87% 0.00in /  0mm WeatherDisplay:10.37 W/m2 CLR
03:04 49.6 °F /  9.8 °C 45.8 °F /  7.7 °C 30.17in /  1021.6hPa East 1.2mph /  1.9km/h 1.2mph /  1.9km/h 87% 0.00in /  0mm WeatherDisplay:10.37 W/m2 CLR
03:09 49.5 °F /  9.7 °C 45.8 °F /  7.7 °C 30.17in /  1021.6hPa East 2.3mph /  3.7km/h 2.3mph /  3.7km/h 87% 0.00in /  0mm WeatherDisplay:10.37 W/m2 CLR
03:14 49.4 °F /  9.7 °C 46.0 °F /  7.8 °C 30.16in /  1021.2hPa East 3.5mph /  5.6km/h 3.5mph /  5.6km/h 88% 0.00in /  0mm WeatherDisplay:10.37 W/m2 CLR
03:19 49.4 °F /  9.7 °C 46.0 °F /  7.8 °C 30.16in /  1021.2hPa East 2.3mph /  3.7km/h 2.3mph /  3.7km/h 88% 0.00in /  0mm WeatherDisplay:10.37 W/m2 CLR
03:24 49.6 °F /  9.8 °C 46.2 °F /  7.9 °C 30.16in /  1021.2hPa East 3.5mph /  5.6km/h 3.5mph /  5.6km/h 88% 0.00in /  0mm WeatherDisplay:10.37 W/m2 CLR
03:29 49.7 °F /  9.8 °C 46.3 °F /  7.9 °C 30.15in /  1020.9hPa East 2.3mph /  3.7km/h 2.3mph /  3.7km/h 88% 0.00in /  0mm WeatherDisplay:10.37 W/m2 CLR
03:34 49.6 °F /  9.8 °C 45.8 °F /  7.7 °C 30.15in /  1020.9hPa East 1.2mph /  1.9km/h 1.2mph /  1.9km/h 87% 0.00in /  0mm WeatherDisplay:10.37 W/m2 CLR
03:39 49.4 °F /  9.7 °C 46.0 °F /  7.8 °C 30.15in /  1020.9hPa East 2.3mph /  3.7km/h 2.3mph /  3.7km/h 88% 0.00in /  0mm WeatherDisplay:10.37 W/m2 CLR
03:44 49.3 °F /  9.6 °C 45.9 °F /  7.7 °C 30.15in /  1020.9hPa East 2.3mph /  3.7km/h 2.3mph /  3.7km/h 88% 0.00in /  0mm WeatherDisplay:10.37 W/m2 CLR
03:49 49.2 °F /  9.6 °C 45.8 °F /  7.7 °C 30.15in /  1020.9hPa East 2.3mph /  3.7km/h 2.3mph /  3.7km/h 88% 0.00in /  0mm WeatherDisplay:10.37 W/m2 CLR
03:54 49.2 °F /  9.6 °C 46.1 °F /  7.8 °C 30.15in /  1020.9hPa East 2.3mph /  3.7km/h 2.3mph /  3.7km/h 89% 0.00in /  0mm WeatherDisplay:10.37 W/m2 CLR
03:59 49.2 °F /  9.6 °C 45.8 °F /  7.7 °C 30.15in /  1020.9hPa Calm     88% 0.00in /  0mm WeatherDisplay:10.37 W/m2 CLR
04:04 49.2 °F /  9.6 °C 45.8 °F /  7.7 °C 30.15in /  1020.9hPa Calm     88% 0.00in /  0mm WeatherDisplay:10.37 W/m2 CLR
04:09 49.0 °F /  9.4 °C 45.6 °F /  7.6 °C 30.15in /  1020.9hPa East 2.3mph /  3.7km/h 2.3mph /  3.7km/h 88% 0.00in /  0mm WeatherDisplay:10.37 W/m2 CLR
04:14 48.7 °F /  9.3 °C 45.3 °F /  7.4 °C 30.15in /  1020.9hPa East 1.2mph /  1.9km/h 1.2mph /  1.9km/h 88% 0.00in /  0mm WeatherDisplay:10.37 W/m2 CLR
04:19 48.5 °F /  9.2 °C 45.4 °F /  7.4 °C 30.15in /  1020.9hPa East 2.3mph /  3.7km/h 2.3mph /  3.7km/h 89% 0.00in /  0mm WeatherDisplay:10.37 W/m2 CLR
04:24 48.3 °F /  9.1 °C 45.2 °F /  7.3 °C 30.15in /  1020.9hPa East 1.2mph /  1.9km/h 1.2mph /  1.9km/h 89% 0.00in /  0mm WeatherDisplay:10.37 W/m2 CLR
04:29 48.1 °F /  8.9 °C 45.0 °F /  7.2 °C 30.15in /  1020.9hPa East 3.0mph /  4.8km/h 3.0mph /  4.8km/h 89% 0.00in /  0mm WeatherDisplay:10.37 W/m2 CLR
04:34 48.1 °F /  8.9 °C 45.3 °F /  7.4 °C 30.15in /  1020.9hPa East 4.0mph /  6.4km/h 4.0mph /  6.4km/h 90% 0.00in /  0mm WeatherDisplay:10.37 W/m2 CLR
04:39 48.2 °F /  9 °C 45.4 °F /  7.4 °C 30.15in /  1020.9hPa East 3.5mph /  5.6km/h 3.5mph /  5.6km/h 90% 0.00in /  0mm WeatherDisplay:10.37 W/m2 CLR
04:44 48.5 °F /  9.2 °C 45.7 °F /  7.6 °C 30.15in /  1020.9hPa ESE 3.5mph /  5.6km/h 3.5mph /  5.6km/h 90% 0.00in /  0mm WeatherDisplay:10.37 W/m2 CLR
04:49 48.7 °F /  9.3 °C 45.6 °F /  7.6 °C 30.15in /  1020.9hPa ESE 1.2mph /  1.9km/h 1.2mph /  1.9km/h 89% 0.00in /  0mm WeatherDisplay:10.37 W/m2 CLR
04:54 48.7 °F /  9.3 °C 45.6 °F /  7.6 °C 30.15in /  1020.9hPa ESE 2.3mph /  3.7km/h 2.3mph /  3.7km/h 89% 0.00in /  0mm WeatherDisplay:10.37 W/m2 CLR
04:59 48.6 °F /  9.2 °C 45.5 °F /  7.5 °C 30.15in /  1020.9hPa ESE 3.5mph /  5.6km/h 3.5mph /  5.6km/h 89% 0.00in /  0mm WeatherDisplay:10.37 W/m2 CLR
05:04 48.6 °F /  9.2 °C 45.5 °F /  7.5 °C 30.14in /  1020.5hPa ESE 3.5mph /  5.6km/h 3.5mph /  5.6km/h 89% 0.00in /  0mm WeatherDisplay:10.37 W/m2 CLR
05:09 48.6 °F /  9.2 °C 45.5 °F /  7.5 °C 30.15in /  1020.9hPa ESE 2.3mph /  3.7km/h 2.3mph /  3.7km/h 89% 0.00in /  0mm WeatherDisplay:10.37 W/m2 CLR
05:14 48.6 °F /  9.2 °C 45.5 °F /  7.5 °C 30.15in /  1020.9hPa ESE 2.3mph /  3.7km/h 2.3mph /  3.7km/h 89% 0.00in /  0mm WeatherDisplay:10.37 W/m2 CLR
05:19 48.6 °F /  9.2 °C 45.5 °F /  7.5 °C 30.15in /  1020.9hPa NE 3.5mph /  5.6km/h 3.5mph /  5.6km/h 89% 0.00in /  0mm WeatherDisplay:10.37 W/m2 CLR
05:24 48.3 °F /  9.1 °C 44.9 °F /  7.2 °C 30.15in /  1020.9hPa Calm     88% 0.00in /  0mm WeatherDisplay:10.37 W/m2 CLR
05:29 48.0 °F /  8.9 °C 44.9 °F /  7.2 °C 30.15in /  1020.9hPa Calm     89% 0.00in /  0mm WeatherDisplay:10.37 W/m2 CLR
05:34 47.8 °F /  8.8 °C 45.0 °F /  7.2 °C 30.15in /  1020.9hPa NE 2.3mph /  3.7km/h 2.3mph /  3.7km/h 90% 0.00in /  0mm WeatherDisplay:10.37 W/m2 CLR
05:39 47.9 °F /  8.8 °C 45.1 °F /  7.3 °C 30.15in /  1020.9hPa NE 2.3mph /  3.7km/h 2.3mph /  3.7km/h 90% 0.00in /  0mm WeatherDisplay:10.37 W/m2 CLR
05:44 48.0 °F /  8.9 °C 45.5 °F /  7.5 °C 30.15in /  1020.9hPa NE 2.3mph /  3.7km/h 2.3mph /  3.7km/h 91% 0.00in /  0mm WeatherDisplay:10.37 W/m2 CLR
05:49 48.1 °F /  8.9 °C 45.3 °F /  7.4 °C 30.15in /  1020.9hPa NE 2.3mph /  3.7km/h 2.3mph /  3.7km/h 90% 0.00in /  0mm WeatherDisplay:10.37 W/m2 CLR
05:54 48.3 °F /  9.1 °C 45.5 °F /  7.5 °C 30.15in /  1020.9hPa NE 3.5mph /  5.6km/h 3.5mph /  5.6km/h 90% 0.00in /  0mm WeatherDisplay:10.37 W/m2 CLR
05:59 48.4 °F /  9.1 °C 45.6 °F /  7.6 °C 30.15in /  1020.9hPa NE 3.5mph /  5.6km/h 3.5mph /  5.6km/h 90% 0.00in /  0mm WeatherDisplay:10.37 W/m2 CLR
06:04 48.5 °F /  9.2 °C 45.7 °F /  7.6 °C 30.15in /  1020.9hPa NE 1.2mph /  1.9km/h 1.2mph /  1.9km/h 90% 0.00in /  0mm WeatherDisplay:10.37 W/m2 CLR
06:09 48.3 °F /  9.1 °C 45.2 °F /  7.3 °C 30.15in /  1020.9hPa NE 1.2mph /  1.9km/h 1.2mph /  1.9km/h 89% 0.00in /  0mm WeatherDisplay:10.37 W/m2 CLR
06:14 48.2 °F /  9 °C 45.4 °F /  7.4 °C 30.16in /  1021.2hPa NE 3.5mph /  5.6km/h 3.5mph /  5.6km/h 90% 0.00in /  0mm WeatherDisplay:10.37 W/m2 CLR
06:19 48.2 °F /  9 °C 45.4 °F /  7.4 °C 30.16in /  1021.2hPa NE 3.5mph /  5.6km/h 3.5mph /  5.6km/h 90% 0.00in /  0mm WeatherDisplay:10.37 W/m2 CLR
06:24 48.2 °F /  9 °C 45.4 °F /  7.4 °C 30.16in /  1021.2hPa NE 3.5mph /  5.6km/h 3.5mph /  5.6km/h 90% 0.00in /  0mm WeatherDisplay:10.37 W/m2 CLR
06:29 48.1 °F /  8.9 °C 45.3 °F /  7.4 °C 30.16in /  1021.2hPa NE 2.3mph /  3.7km/h 2.3mph /  3.7km/h 90% 0.00in /  0mm WeatherDisplay:10.37 W/m2 CLR
06:34 48.2 °F /  9 °C 45.4 °F /  7.4 °C 30.16in /  1021.2hPa NE 3.5mph /  5.6km/h 3.5mph /  5.6km/h 90% 0.00in /  0mm WeatherDisplay:10.37 W/m2 CLR
06:39 48.2 °F /  9 °C 45.4 °F /  7.4 °C 30.16in /  1021.2hPa NE 3.5mph /  5.6km/h 3.5mph /  5.6km/h 90% 0.00in /  0mm WeatherDisplay:10.37 W/m2 CLR
06:44 48.2 °F /  9 °C 45.4 °F /  7.4 °C 30.16in /  1021.2hPa NE 3.5mph /  5.6km/h 3.5mph /  5.6km/h 90% 0.00in /  0mm WeatherDisplay:10.37 W/m2 CLR
06:49 48.1 °F /  8.9 °C 45.3 °F /  7.4 °C 30.16in /  1021.2hPa NE 3.5mph /  5.6km/h 3.5mph /  5.6km/h 90% 0.00in /  0mm WeatherDisplay:10.37 W/m2 CLR
06:54 48.1 °F /  8.9 °C 45.3 °F /  7.4 °C 30.16in /  1021.2hPa NE 3.0mph /  4.8km/h 3.0mph /  4.8km/h 90% 0.00in /  0mm WeatherDisplay:10.37 W/m2 CLR
06:59 48.0 °F /  8.9 °C 45.2 °F /  7.3 °C 30.16in /  1021.2hPa NE 3.5mph /  5.6km/h 3.5mph /  5.6km/h 90% 0.00in /  0mm WeatherDisplay:10.37 W/m2 CLR
07:04 48.0 °F /  8.9 °C 45.2 °F /  7.3 °C 30.16in /  1021.2hPa NE 2.3mph /  3.7km/h 2.3mph /  3.7km/h 90% 0.00in /  0mm WeatherDisplay:10.37 W/m2 CLR
07:09 47.9 °F /  8.8 °C 45.1 °F /  7.3 °C 30.16in /  1021.2hPa NE 3.5mph /  5.6km/h 3.5mph /  5.6km/h 90% 0.00in /  0mm WeatherDisplay:10.37 W/m2 CLR
07:14 47.9 °F /  8.8 °C 45.1 °F /  7.3 °C 30.16in /  1021.2hPa NE 2.3mph /  3.7km/h 2.3mph /  3.7km/h 90% 0.00in /  0mm WeatherDisplay:10.37 W/m2 CLR
07:19 48.0 °F /  8.9 °C 45.2 °F /  7.3 °C 30.17in /  1021.6hPa NE 1.2mph /  1.9km/h   90% 0.00in /  0mm WeatherDisplay:10.37 W/m2 CLR
07:24 48.0 °F /  8.9 °C 45.2 °F /  7.3 °C 30.17in /  1021.6hPa NE 1.0mph /  1.6km/h   90% 0.00in /  0mm WeatherDisplay:10.37 W/m2 CLR
07:29 48.0 °F /  8.9 °C 45.2 °F /  7.3 °C 30.17in /  1021.6hPa NE 2.3mph /  3.7km/h 2.3mph /  3.7km/h 90% 0.00in /  0mm WeatherDisplay:10.37 W/m2 CLR
07:34 48.0 °F /  8.9 °C 45.2 °F /  7.3 °C 30.17in /  1021.6hPa NE 2.3mph /  3.7km/h 2.3mph /  3.7km/h 90% 0.00in /  0mm WeatherDisplay:10.37 W/m2 CLR
07:39 48.1 °F /  8.9 °C 45.3 °F /  7.4 °C 30.17in /  1021.6hPa Calm     90% 0.00in /  0mm WeatherDisplay:10.37 W/m2 CLR
07:44 48.1 °F /  8.9 °C 45.3 °F /  7.4 °C 30.17in /  1021.6hPa NE 2.3mph /  3.7km/h 2.3mph /  3.7km/h 90% 0.00in /  0mm WeatherDisplay:10.37 W/m2 CLR
07:49 47.9 °F /  8.8 °C 45.1 °F /  7.3 °C 30.17in /  1021.6hPa NE 3.5mph /  5.6km/h 3.5mph /  5.6km/h 90% 0.00in /  0mm WeatherDisplay:10.37 W/m2 CLR
07:54 48.0 °F /  8.9 °C 45.2 °F /  7.3 °C 30.17in /  1021.6hPa NE 2.3mph /  3.7km/h 2.3mph /  3.7km/h 90% 0.00in /  0mm WeatherDisplay:10.37 W/m2 CLR
07:59 48.1 °F /  8.9 °C 45.3 °F /  7.4 °C 30.17in /  1021.6hPa NE 1.2mph /  1.9km/h 1.2mph /  1.9km/h 90% 0.00in /  0mm WeatherDisplay:10.37 W/m2 CLR
08:04 48.2 °F /  9 °C 45.4 °F /  7.4 °C 30.17in /  1021.6hPa NE 1.2mph /  1.9km/h 1.2mph /  1.9km/h 90% 0.00in /  0mm WeatherDisplay:10.37 W/m2 SCT
08:09 48.3 °F /  9.1 °C 45.5 °F /  7.5 °C 30.17in /  1021.6hPa NE 3.5mph /  5.6km/h 3.5mph /  5.6km/h 90% 0.00in /  0mm WeatherDisplay:10.37 W/m2 SCT
08:14 48.5 °F /  9.2 °C 45.7 °F /  7.6 °C 30.17in /  1021.6hPa NE 2.3mph /  3.7km/h 2.3mph /  3.7km/h 90% 0.00in /  0mm WeatherDisplay:10.37 W/m2 SCT
08:19 48.6 °F /  9.2 °C 45.8 °F /  7.7 °C 30.17in /  1021.6hPa NE 3.5mph /  5.6km/h 3.5mph /  5.6km/h 90% 0.00in /  0mm WeatherDisplay:10.37 W/m2 SCT
08:24 48.8 °F /  9.3 °C 46.0 °F /  7.8 °C 30.18in /  1021.9hPa NE 2.3mph /  3.7km/h 2.3mph /  3.7km/h 90% 0.00in /  0mm WeatherDisplay:10.37 W/m2 SCT
08:29 49.0 °F /  9.4 °C 46.2 °F /  7.9 °C 30.18in /  1021.9hPa NE 2.3mph /  3.7km/h 2.3mph /  3.7km/h 90% 0.00in /  0mm WeatherDisplay:10.37 W/m2 SCT
08:34 49.1 °F /  9.5 °C 46.0 °F /  7.8 °C 30.18in /  1021.9hPa NE 2.3mph /  3.7km/h 2.3mph /  3.7km/h 89% 0.00in /  0mm WeatherDisplay:10.37 W/m2 SCT
08:39 49.2 °F /  9.6 °C 46.1 °F /  7.8 °C 30.18in /  1021.9hPa NE 3.5mph /  5.6km/h 3.5mph /  5.6km/h 89% 0.00in /  0mm WeatherDisplay:10.37 W/m2 SCT
08:44 49.4 °F /  9.7 °C 46.3 °F /  7.9 °C 30.18in /  1021.9hPa NE 2.3mph /  3.7km/h 2.3mph /  3.7km/h 89% 0.00in /  0mm WeatherDisplay:10.37 W/m2 SCT
08:49 49.6 °F /  9.8 °C 46.2 °F /  7.9 °C 30.18in /  1021.9hPa NE 2.3mph /  3.7km/h 2.3mph /  3.7km/h 88% 0.00in /  0mm WeatherDisplay:10.37 W/m2 SCT
08:54 50.0 °F /  10 °C 46.5 °F /  8.1 °C 30.18in /  1021.9hPa NE 2.3mph /  3.7km/h 2.3mph /  3.7km/h 88% 0.00in /  0mm WeatherDisplay:10.37 W/m2 SCT
08:59 50.3 °F /  10.2 °C 46.8 °F /  8.2 °C 30.18in /  1021.9hPa NE 3.5mph /  5.6km/h 3.5mph /  5.6km/h 88% 0.00in /  0mm WeatherDisplay:10.37 W/m2 SCT
09:04 50.7 °F /  10.4 °C 47.2 °F /  8.4 °C 30.18in /  1021.9hPa NE 1.2mph /  1.9km/h 1.2mph /  1.9km/h 88% 0.00in /  0mm WeatherDisplay:10.37 W/m2 BKN
09:09 51.1 °F /  10.6 °C 47.0 °F /  8.3 °C 30.18in /  1021.9hPa ESE 3.5mph /  5.6km/h 3.5mph /  5.6km/h 86% 0.00in /  0mm WeatherDisplay:10.37 W/m2 BKN
09:14 51.4 °F /  10.8 °C 47.3 °F /  8.5 °C 30.18in /  1021.9hPa ESE 3.5mph /  5.6km/h 3.5mph /  5.6km/h 86% 0.00in /  0mm WeatherDisplay:10.37 W/m2 BKN
09:19 51.8 °F /  11 °C 47.4 °F /  8.6 °C 30.18in /  1021.9hPa ESE 3.5mph /  5.6km/h 3.5mph /  5.6km/h 85% 0.00in /  0mm WeatherDisplay:10.37 W/m2 BKN
09:24 52.4 °F /  11.3 °C 48.0 °F /  8.9 °C 30.17in /  1021.6hPa ESE 3.5mph /  5.6km/h 3.5mph /  5.6km/h 85% 0.00in /  0mm WeatherDisplay:10.37 W/m2 BKN
09:29 53.1 °F /  11.7 °C 48.4 °F /  9.1 °C 30.17in /  1021.6hPa ESE 1.2mph /  1.9km/h 1.2mph /  1.9km/h 84% 0.00in /  0mm WeatherDisplay:10.37 W/m2 BKN
09:30 53.2 °F /  11.8 °C 48.5 °F /  9.2 °C 30.17in /  1021.6hPa ESE 2.3mph /  3.7km/h 2.3mph /  3.7km/h 84% 0.00in /  0mm WeatherDisplay:10.37 W/m2 BKN
09:35 54.0 °F /  12.2 °C 48.9 °F /  9.4 °C 30.17in /  1021.6hPa ESE 3.5mph /  5.6km/h 3.5mph /  5.6km/h 83% 0.00in /  0mm WeatherDisplay:10.37 W/m2 BKN
09:40 55.0 °F /  12.8 °C 49.2 °F /  9.6 °C 30.17in /  1021.6hPa ESE 3.5mph /  5.6km/h 3.5mph /  5.6km/h 81% 0.00in /  0mm WeatherDisplay:10.37 W/m2 BKN
09:45 56.1 °F /  13.4 °C 49.6 °F /  9.8 °C 30.17in /  1021.6hPa ESE 3.0mph /  4.8km/h 3.0mph /  4.8km/h 79% 0.00in /  0mm WeatherDisplay:10.37 W/m2 OVC
09:50 56.9 °F /  13.8 °C 49.7 °F /  9.8 °C 30.17in /  1021.6hPa ESE 2.3mph /  3.7km/h 2.3mph /  3.7km/h 77% 0.00in /  0mm WeatherDisplay:10.37 W/m2 OVC
09:55 57.4 °F /  14.1 °C 49.9 °F /  9.9 °C 30.17in /  1021.6hPa ESE 3.0mph /  4.8km/h 3.0mph /  4.8km/h 76% 0.00in /  0mm WeatherDisplay:10.37 W/m2 OVC
10:00 57.7 °F /  14.3 °C 49.8 °F /  9.9 °C 30.16in /  1021.2hPa SE 2.3mph /  3.7km/h 2.3mph /  3.7km/h 75% 0.00in /  0mm WeatherDisplay:10.37 W/m2 OVC
10:05 58.1 °F /  14.5 °C 49.8 °F /  9.9 °C 30.16in /  1021.2hPa East 3.5mph /  5.6km/h 3.5mph /  5.6km/h 74% 0.00in /  0mm WeatherDisplay:10.37 W/m2 BKN
10:10 58.5 °F /  14.7 °C 49.8 °F /  9.9 °C 30.16in /  1021.2hPa East 2.3mph /  3.7km/h 2.3mph /  3.7km/h 73% 0.00in /  0mm WeatherDisplay:10.37 W/m2 BKN
10:15 59.0 °F /  15 °C 49.9 °F /  9.9 °C 30.16in /  1021.2hPa East 2.3mph /  3.7km/h 2.3mph /  3.7km/h 72% 0.00in /  0mm WeatherDisplay:10.37 W/m2 BKN
10:20 59.3 °F /  15.2 °C 50.2 °F /  10.1 °C 30.16in /  1021.2hPa East 1.2mph /  1.9km/h 1.2mph /  1.9km/h 72% 0.00in /  0mm WeatherDisplay:10.37 W/m2 BKN
10:25 59.7 °F /  15.4 °C 50.2 °F /  10.1 °C 30.16in /  1021.2hPa East 2.3mph /  3.7km/h 2.3mph /  3.7km/h 71% 0.00in /  0mm WeatherDisplay:10.37 W/m2 SCT
10:30 59.7 °F /  15.4 °C 50.2 °F /  10.1 °C 30.16in /  1021.2hPa East 2.3mph /  3.7km/h 2.3mph /  3.7km/h 71% 0.00in /  0mm WeatherDisplay:10.37 W/m2 SCT
10:35 60.0 °F /  15.6 °C 50.1 °F /  10.1 °C 30.16in /  1021.2hPa East 1.2mph /  1.9km/h 1.2mph /  1.9km/h 70% 0.00in /  0mm WeatherDisplay:10.37 W/m2 SCT
10:40 60.5 °F /  15.8 °C 50.6 °F /  10.3 °C 30.17in /  1021.6hPa East 2.3mph /  3.7km/h 2.3mph /  3.7km/h 70% 0.00in /  0mm WeatherDisplay:10.37 W/m2 SCT
10:45 60.8 °F /  16 °C 50.1 °F /  10.1 °C 30.17in /  1021.6hPa East 2.0mph /  3.2km/h 2.0mph /  3.2km/h 68% 0.00in /  0mm WeatherDisplay:10.37 W/m2 CLR
10:50 61.2 °F /  16.2 °C 50.1 °F /  10.1 °C 30.17in /  1021.6hPa East 1.2mph /  1.9km/h 1.2mph /  1.9km/h 67% 0.00in /  0mm WeatherDisplay:10.37 W/m2 CLR
10:55 61.8 °F /  16.6 °C 49.9 °F /  9.9 °C 30.16in /  1021.2hPa East 2.3mph /  3.7km/h 2.3mph /  3.7km/h 65% 0.00in /  0mm WeatherDisplay:10.37 W/m2 CLR
11:00 62.1 °F /  16.7 °C 49.3 °F /  9.6 °C 30.16in /  1021.2hPa East 2.3mph /  3.7km/h 2.3mph /  3.7km/h 63% 0.00in /  0mm WeatherDisplay:10.37 W/m2 CLR
11:05 62.6 °F /  17 °C 50.2 °F /  10.1 °C 30.16in /  1021.2hPa NNE 3.0mph /  4.8km/h 3.0mph /  4.8km/h 64% 0.00in /  0mm WeatherDisplay:10.37 W/m2 CLR
11:10 62.9 °F /  17.2 °C 49.6 °F /  9.8 °C 30.16in /  1021.2hPa NNE 3.5mph /  5.6km/h 3.5mph /  5.6km/h 62% 0.00in /  0mm WeatherDisplay:10.37 W/m2 CLR
11:15 63.1 °F /  17.3 °C 50.3 °F /  10.2 °C 30.16in /  1021.2hPa NNE 2.3mph /  3.7km/h 2.3mph /  3.7km/h 63% 0.00in /  0mm WeatherDisplay:10.37 W/m2 CLR
11:20 63.6 °F /  17.6 °C 49.9 °F /  9.9 °C 30.15in /  1020.9hPa NNE 2.3mph /  3.7km/h 2.3mph /  3.7km/h 61% 0.00in /  0mm WeatherDisplay:10.37 W/m2 CLR
11:25 64.3 °F /  17.9 °C 49.6 °F /  9.8 °C 30.15in /  1020.9hPa NNE 3.5mph /  5.6km/h 3.5mph /  5.6km/h 59% 0.00in /  0mm WeatherDisplay:10.37 W/m2 CLR
11:30 64.7 °F /  18.2 °C 50.0 °F /  10 °C 30.15in /  1020.9hPa NE 2.3mph /  3.7km/h 2.3mph /  3.7km/h 59% 0.00in /  0mm WeatherDisplay:10.37 W/m2 CLR
11:35 65.1 °F /  18.4 °C 50.4 °F /  10.2 °C 30.15in /  1020.9hPa ENE 3.5mph /  5.6km/h 3.5mph /  5.6km/h 59% 0.00in /  0mm WeatherDisplay:10.37 W/m2 CLR
11:40 65.4 °F /  18.6 °C 50.2 °F /  10.1 °C 30.15in /  1020.9hPa SW 3.5mph /  5.6km/h 3.5mph /  5.6km/h 58% 0.00in /  0mm WeatherDisplay:10.37 W/m2 CLR
11:45 65.5 °F /  18.6 °C 49.8 °F /  9.9 °C 30.15in /  1020.9hPa SW 1.2mph /  1.9km/h 1.2mph /  1.9km/h 57% 0.00in /  0mm WeatherDisplay:10.37 W/m2 CLR
11:50 66.0 °F /  18.9 °C 50.3 °F /  10.2 °C 30.15in /  1020.9hPa WNW 2.3mph /  3.7km/h 2.3mph /  3.7km/h 57% 0.00in /  0mm WeatherDisplay:10.37 W/m2 CLR
11:55 66.3 °F /  19.1 °C 50.1 °F /  10.1 °C 30.14in /  1020.5hPa NNW 8.1mph /  13km/h 8.1mph /  13km/h 56% 0.00in /  0mm WeatherDisplay:10.37 W/m2 CLR
12:00 66.2 °F /  19 °C 49.5 °F /  9.7 °C 30.14in /  1020.5hPa South 3.5mph /  5.6km/h 3.5mph /  5.6km/h 55% 0.00in /  0mm WeatherDisplay:10.37 W/m2 CLR
12:05 66.4 °F /  19.1 °C 50.2 °F /  10.1 °C 30.14in /  1020.5hPa West 6.9mph /  11.1km/h 6.9mph /  11.1km/h 56% 0.00in /  0mm WeatherDisplay:10.37 W/m2 CLR
12:10 66.3 °F /  19.1 °C 49.6 °F /  9.8 °C 30.14in /  1020.5hPa West 5.8mph /  9.3km/h 5.8mph /  9.3km/h 55% 0.00in /  0mm WeatherDisplay:10.37 W/m2 CLR
12:15 66.6 °F /  19.2 °C 49.4 °F /  9.7 °C 30.13in /  1020.2hPa South 4.6mph /  7.4km/h 4.6mph /  7.4km/h 54% 0.00in /  0mm WeatherDisplay:10.37 W/m2 CLR
12:20 67.5 °F /  19.7 °C 50.7 °F /  10.4 °C 30.13in /  1020.2hPa WSW 5.0mph /  8km/h 5.0mph /  8km/h 55% 0.00in /  0mm WeatherDisplay:10.37 W/m2 CLR
12:25 67.9 °F /  19.9 °C 50.1 °F /  10.1 °C 30.13in /  1020.2hPa South 4.6mph /  7.4km/h 4.6mph /  7.4km/h 53% 0.00in /  0mm WeatherDisplay:10.37 W/m2 CLR
12:30 68.3 °F /  20.2 °C 50.0 °F /  10 °C 30.13in /  1020.2hPa SSW 3.5mph /  5.6km/h 3.5mph /  5.6km/h 52% 0.00in /  0mm WeatherDisplay:10.37 W/m2 CLR
12:35 69.1 °F /  20.6 °C 51.2 °F /  10.7 °C 30.12in /  1019.9hPa WNW 5.0mph /  8km/h 5.0mph /  8km/h 53% 0.00in /  0mm WeatherDisplay:10.37 W/m2 CLR
12:40 69.2 °F /  20.7 °C 50.3 °F /  10.2 °C 30.13in /  1020.2hPa SSW 6.9mph /  11.1km/h 6.9mph /  11.1km/h 51% 0.00in /  0mm WeatherDisplay:10.37 W/m2 CLR
12:45 69.2 °F /  20.7 °C 50.3 °F /  10.2 °C 30.12in /  1019.9hPa SW 3.5mph /  5.6km/h 3.5mph /  5.6km/h 51% 0.00in /  0mm WeatherDisplay:10.37 W/m2 CLR
12:50 69.2 °F /  20.7 °C 49.7 °F /  9.8 °C 30.12in /  1019.9hPa South 3.5mph /  5.6km/h 3.5mph /  5.6km/h 50% 0.00in /  0mm WeatherDisplay:10.37 W/m2 CLR
12:55 69.7 °F /  20.9 °C 50.2 °F /  10.1 °C 30.12in /  1019.9hPa ESE 3.5mph /  5.6km/h 3.5mph /  5.6km/h 50% 0.00in /  0mm WeatherDisplay:10.37 W/m2 CLR
13:00 70.2 °F /  21.2 °C 50.1 °F /  10.1 °C 30.12in /  1019.9hPa South 3.5mph /  5.6km/h 3.5mph /  5.6km/h 49% 0.00in /  0mm WeatherDisplay:10.37 W/m2 CLR
13:05 70.3 °F /  21.3 °C 51.8 °F /  11 °C 30.11in /  1019.5hPa West 3.5mph /  5.6km/h 3.5mph /  5.6km/h 52% 0.00in /  0mm WeatherDisplay:10.37 W/m2 CLR
13:10 70.0 °F /  21.1 °C 50.5 °F /  10.3 °C 30.11in /  1019.5hPa WSW 6.9mph /  11.1km/h 6.9mph /  11.1km/h 50% 0.00in /  0mm WeatherDisplay:10.37 W/m2 CLR
13:15 69.9 °F /  21.1 °C 50.9 °F /  10.5 °C 30.10in /  1019.2hPa SSW 3.5mph /  5.6km/h 3.5mph /  5.6km/h 51% 0.00in /  0mm WeatherDisplay:10.37 W/m2 CLR
13:20 70.0 °F /  21.1 °C 49.9 °F /  9.9 °C 30.10in /  1019.2hPa SW 2.3mph /  3.7km/h 2.3mph /  3.7km/h 49% 0.00in /  0mm WeatherDisplay:10.37 W/m2 CLR
13:25 70.1 °F /  21.2 °C 50.0 °F /  10 °C 30.10in /  1019.2hPa WSW 3.5mph /  5.6km/h 3.5mph /  5.6km/h 49% 0.00in /  0mm WeatherDisplay:10.37 W/m2 CLR
Smyth Weather
Compliments of Weather Underground - 2.25 mb